Time;durP1;ratioP1;P1;durP2;ratioP2;P2;SDS_P1;SDS_P2;PMS_P1;PMS_P2;Temp;Humidity;BMP_temperature;BMP_pressure;BME280_temperature;BME280_humidity;BME280_pressure;Samples;Min_cycle;Max_cycle;Signal;HPM_P1;HPM_P2
2022/05/14 00:00:24;;;;;;;5.85;1.77;;;;;;;;;;5066023;28;20039;-55
2022/05/14 00:02:50;;;;;;;7.95;2.00;;;;;;;;;;5056711;28;20078;-57
2022/05/14 00:05:21;;;;;;;7.70;1.70;;;;;;;;;;5066330;28;20466;-55
2022/05/14 00:07:47;;;;;;;5.13;1.85;;;;;;;;;;5056134;28;20036;-56
2022/05/14 00:10:13;;;;;;;5.70;1.83;;;;;;;;;;5067794;28;20103;-56
2022/05/14 00:15:25;;;;;;;11.05;2.45;;;;;;;;;;5067650;28;20120;-54
2022/05/14 00:17:51;;;;;;;5.75;1.98;;;;;;;;;;5055814;28;20025;-55
2022/05/14 00:20:18;;;;;;;4.45;1.80;;;;;;;;;;5067977;28;20090;-56
2022/05/14 00:22:44;;;;;;;7.53;2.03;;;;;;;;;;5053313;28;20036;-55
2022/05/14 00:25:10;;;;;;;8.50;2.97;;;;;;;;;;5047585;28;20029;-57
2022/05/14 00:27:43;;;;;;;8.77;2.28;;;;;;;;;;5059498;28;20082;-57
2022/05/14 00:30:11;;;;;;;7.05;1.85;;;;;;;;;;5033748;28;20033;-56
2022/05/14 00:32:37;;;;;;;7.03;2.00;;;;;;;;;;5061812;28;20828;-56
2022/05/14 00:35:04;;;;;;;6.32;2.13;;;;;;;;;;5053450;28;20028;-57
2022/05/14 00:37:30;;;;;;;5.45;1.98;;;;;;;;;;5058999;28;20031;-56
2022/05/14 00:39:56;;;;;;;5.07;1.90;;;;;;;;;;5065084;28;20080;-57
2022/05/14 00:42:22;;;;;;;5.50;1.73;;;;;;;;;;5056564;28;20117;-56
2022/05/14 00:44:48;;;;;;;5.47;1.80;;;;;;;;;;5058443;28;20487;-54
2022/05/14 00:47:15;;;;;;;5.47;1.70;;;;;;;;;;5054049;28;20028;-58
2022/05/14 00:49:42;;;;;;;9.43;2.10;;;;;;;;;;5060311;28;20135;-56
2022/05/14 00:52:12;;;;;;;7.38;2.42;;;;;;;;;;5052396;28;20021;-55
2022/05/14 00:54:40;;;;;;;5.53;2.25;;;;;;;;;;5055571;28;20036;-57
2022/05/14 00:57:09;;;;;;;7.88;2.63;;;;;;;;;;5052424;28;20025;-55
2022/05/14 00:59:36;;;;;;;6.97;2.13;;;;;;;;;;5062228;28;20024;-57
2022/05/14 01:02:02;;;;;;;5.13;1.65;;;;;;;;;;5051162;28;20479;-56
2022/05/14 01:04:29;;;;;;;7.93;2.20;;;;;;;;;;5062719;28;20032;-53
2022/05/14 01:07:01;;;;;;;7.95;2.00;;;;;;;;;;5050913;28;20495;-55
2022/05/14 01:09:27;;;;;;;8.38;2.20;;;;;;;;;;5066454;28;20029;-57
2022/05/14 01:11:54;;;;;;;4.90;1.95;;;;;;;;;;5070811;28;20031;-56
2022/05/14 01:14:20;;;;;;;6.32;2.08;;;;;;;;;;5057782;28;20033;-55
2022/05/14 01:16:46;;;;;;;4.65;2.10;;;;;;;;;;5071182;28;20075;-57
2022/05/14 01:19:12;;;;;;;8.55;1.83;;;;;;;;;;5059324;28;20115;-56
2022/05/14 01:21:38;;;;;;;6.10;1.92;;;;;;;;;;5068999;28;20029;-55
2022/05/14 01:27:08;;;;;;;6.13;2.20;;;;;;;;;;5051603;28;20503;-55
2022/05/14 01:29:35;;;;;;;5.22;1.90;;;;;;;;;;5061258;28;20145;-55
2022/05/14 01:32:01;;;;;;;7.85;2.13;;;;;;;;;;5051655;28;20052;-56
2022/05/14 01:34:30;;;;;;;6.60;1.73;;;;;;;;;;5058332;28;20040;-56
2022/05/14 01:36:57;;;;;;;7.13;2.08;;;;;;;;;;5054336;28;20029;-57
2022/05/14 01:39:23;;;;;;;4.68;1.98;;;;;;;;;;5056398;28;20115;-58
2022/05/14 01:41:49;;;;;;;7.85;2.50;;;;;;;;;;5068654;28;20437;-56
2022/05/14 01:44:15;;;;;;;5.97;1.80;;;;;;;;;;5066242;28;20142;-55
2022/05/14 01:46:42;;;;;;;5.15;1.70;;;;;;;;;;5050297;28;20404;-56
2022/05/14 01:49:08;;;;;;;6.28;1.75;;;;;;;;;;5054991;28;20056;-55
2022/05/14 01:51:34;;;;;;;5.55;1.83;;;;;;;;;;5059770;28;20032;-57
2022/05/14 01:54:00;;;;;;;4.70;1.58;;;;;;;;;;5068386;28;20033;-57
2022/05/14 01:56:26;;;;;;;7.20;1.95;;;;;;;;;;5069100;28;20058;-57
2022/05/14 01:58:52;;;;;;;5.43;1.98;;;;;;;;;;5065517;28;20067;-56
2022/05/14 02:01:20;;;;;;;5.10;1.80;;;;;;;;;;5057952;28;20858;-54
2022/05/14 02:03:47;;;;;;;5.93;1.92;;;;;;;;;;5070251;28;20033;-55
2022/05/14 02:06:13;;;;;;;5.47;1.63;;;;;;;;;;5056716;28;20196;-56
2022/05/14 02:08:39;;;;;;;5.13;1.75;;;;;;;;;;5069548;28;20033;-57
2022/05/14 02:11:07;;;;;;;5.90;1.73;;;;;;;;;;5057562;28;20506;-57
2022/05/14 02:13:33;;;;;;;5.55;1.98;;;;;;;;;;5069465;28;20066;-57
2022/05/14 02:15:59;;;;;;;5.95;2.10;;;;;;;;;;5068428;28;20120;-58
2022/05/14 02:18:26;;;;;;;5.68;1.58;;;;;;;;;;5052313;28;20032;-57
2022/05/14 02:20:52;;;;;;;4.35;2.03;;;;;;;;;;5056553;28;20043;-58
2022/05/14 02:23:18;;;;;;;4.53;1.58;;;;;;;;;;5054763;28;20135;-57
2022/05/14 02:25:44;;;;;;;4.80;1.63;;;;;;;;;;5054120;28;20147;-55
2022/05/14 02:28:10;;;;;;;5.78;1.70;;;;;;;;;;5057264;28;20029;-56
2022/05/14 02:30:36;;;;;;;3.45;1.48;;;;;;;;;;5051735;28;20462;-57
2022/05/14 02:33:02;;;;;;;6.78;1.90;;;;;;;;;;5059561;28;20531;-54
2022/05/14 02:35:28;;;;;;;4.28;1.65;;;;;;;;;;5050535;28;20043;-55
2022/05/14 02:37:54;;;;;;;6.13;1.95;;;;;;;;;;5068063;28;20470;-57
2022/05/14 02:40:21;;;;;;;6.45;2.17;;;;;;;;;;5065721;28;20060;-55
2022/05/14 02:42:47;;;;;;;4.32;1.58;;;;;;;;;;5060690;28;20032;-55
2022/05/14 02:45:13;;;;;;;5.82;1.83;;;;;;;;;;5049302;28;20495;-57
2022/05/14 02:47:39;;;;;;;4.20;1.90;;;;;;;;;;5056659;28;20035;-57
2022/05/14 02:50:06;;;;;;;7.07;2.28;;;;;;;;;;5068965;28;20558;-56
2022/05/14 02:52:33;;;;;;;4.72;1.83;;;;;;;;;;5056037;28;20025;-54
2022/05/14 02:54:59;;;;;;;5.47;1.40;;;;;;;;;;5068399;28;20811;-57
2022/05/14 02:57:25;;;;;;;5.00;1.60;;;;;;;;;;5064486;28;20107;-57
2022/05/14 02:59:51;;;;;;;4.50;1.77;;;;;;;;;;5050949;28;20522;-56
2022/05/14 03:02:18;;;;;;;4.78;1.80;;;;;;;;;;5056793;28;20111;-56
2022/05/14 03:04:44;;;;;;;4.20;1.27;;;;;;;;;;5053301;28;20391;-55
2022/05/14 03:07:11;;;;;;;3.65;1.30;;;;;;;;;;5053769;28;20442;-56
2022/05/14 03:09:38;;;;;;;4.28;1.88;;;;;;;;;;5055312;28;20025;-56
2022/05/14 03:12:05;;;;;;;4.20;2.00;;;;;;;;;;5051752;28;20025;-58
2022/05/14 03:14:31;;;;;;;4.93;1.58;;;;;;;;;;5069212;28;20525;-58
2022/05/14 03:16:58;;;;;;;4.20;1.95;;;;;;;;;;5065447;28;20032;-54
2022/05/14 03:19:24;;;;;;;4.25;1.80;;;;;;;;;;5059350;28;20021;-56
2022/05/14 03:21:50;;;;;;;3.22;1.30;;;;;;;;;;5049716;28;20403;-55
2022/05/14 03:24:16;;;;;;;5.00;1.70;;;;;;;;;;5059519;28;20029;-55
2022/05/14 03:26:43;;;;;;;6.20;1.42;;;;;;;;;;5048329;28;20029;-57
2022/05/14 03:29:09;;;;;;;10.70;2.08;;;;;;;;;;5060863;28;20036;-55
2022/05/14 03:31:36;;;;;;;4.57;1.58;;;;;;;;;;5048376;28;20029;-57
2022/05/14 03:34:03;;;;;;;4.32;1.45;;;;;;;;;;5060568;28;20044;-55
2022/05/14 03:36:29;;;;;;;6.43;1.65;;;;;;;;;;5048774;28;20033;-54
2022/05/14 03:38:55;;;;;;;3.75;1.73;;;;;;;;;;5059363;28;20536;-59
2022/05/14 03:41:22;;;;;;;3.50;1.55;;;;;;;;;;5049386;28;20052;-57
2022/05/14 03:43:48;;;;;;;3.25;1.33;;;;;;;;;;5056860;28;20094;-57
2022/05/14 03:46:14;;;;;;;3.55;1.67;;;;;;;;;;5051718;28;20100;-56
2022/05/14 03:48:41;;;;;;;4.60;1.85;;;;;;;;;;5054533;28;20131;-57
2022/05/14 03:51:07;;;;;;;5.32;1.50;;;;;;;;;;5054006;28;20064;-56
2022/05/14 03:53:34;;;;;;;5.15;1.42;;;;;;;;;;5051977;28;20409;-57
2022/05/14 03:56:01;;;;;;;7.00;1.60;;;;;;;;;;5054195;28;20021;-58
2022/05/14 03:58:27;;;;;;;3.80;1.63;;;;;;;;;;5049326;28;20021;-57
2022/05/14 04:00:54;;;;;;;4.13;1.58;;;;;;;;;;5058869;28;20439;-55
2022/05/14 04:03:20;;;;;;;3.50;1.55;;;;;;;;;;5051048;28;20032;-58
2022/05/14 04:05:47;;;;;;;4.97;1.88;;;;;;;;;;5060976;28;20025;-57
2022/05/14 04:08:13;;;;;;;6.13;2.08;;;;;;;;;;5071309;28;20135;-58
2022/05/14 04:10:39;;;;;;;4.28;1.80;;;;;;;;;;5060536;28;20500;-58
2022/05/14 04:13:05;;;;;;;4.07;1.50;;;;;;;;;;5071657;28;20074;-55
2022/05/14 04:15:31;;;;;;;4.75;1.92;;;;;;;;;;5065593;28;20123;-57
2022/05/14 04:17:57;;;;;;;4.90;1.83;;;;;;;;;;5052005;28;20096;-57
2022/05/14 04:20:23;;;;;;;4.60;1.67;;;;;;;;;;5063293;28;20107;-57
2022/05/14 04:22:50;;;;;;;3.17;1.40;;;;;;;;;;5052307;28;20032;-59
2022/05/14 04:25:16;;;;;;;4.60;1.48;;;;;;;;;;5055636;28;20067;-60
2022/05/14 04:27:45;;;;;;;4.70;1.80;;;;;;;;;;5069131;28;20112;-57
2022/05/14 04:30:12;;;;;;;6.15;1.98;;;;;;;;;;5058548;28;20040;-57
2022/05/14 04:32:38;;;;;;;5.60;1.50;;;;;;;;;;5058266;28;20052;-58
2022/05/14 04:35:04;;;;;;;3.35;1.73;;;;;;;;;;5064410;28;20025;-57
2022/05/14 04:37:30;;;;;;;5.20;1.77;;;;;;;;;;5063704;28;20033;-57
2022/05/14 04:39:56;;;;;;;2.92;1.40;;;;;;;;;;5064670;28;20499;-58
2022/05/14 04:42:22;;;;;;;3.70;1.42;;;;;;;;;;5050635;28;20445;-55
2022/05/14 04:44:48;;;;;;;5.30;1.35;;;;;;;;;;5051966;28;20111;-54
2022/05/14 04:47:17;;;;;;;6.13;2.20;;;;;;;;;;5061823;28;20025;-55
2022/05/14 04:49:47;;;;;;;4.38;1.60;;;;;;;;;;5051518;28;20083;-56
2022/05/14 04:52:13;;;;;;;;;;;;;;;;;;5063049;28;20049;-55
2022/05/14 04:54:39;;;;;;;6.35;1.90;;;;;;;;;;5053295;28;20371;-57
2022/05/14 04:57:06;;;;;;;3.22;1.45;;;;;;;;;;5058359;28;20178;-55
2022/05/14 04:59:32;;;;;;;5.30;1.60;;;;;;;;;;5071421;28;20032;-58
2022/05/14 05:04:44;;;;;;;4.63;1.55;;;;;;;;;;5071385;28;20055;-56
2022/05/14 05:07:10;;;;;;;53.70;6.82;;;;;;;;;;5058053;28;20132;-57
2022/05/14 05:09:36;;;;;;;26.70;5.47;;;;;;;;;;5071299;28;20032;-57
2022/05/14 05:12:03;;;;;;;23.35;5.05;;;;;;;;;;5066251;28;20024;-53
2022/05/14 05:14:29;;;;;;;72.63;6.97;;;;;;;;;;5051161;28;20033;-56
2022/05/14 05:16:55;;;;;;;34.45;5.05;;;;;;;;;;5055194;28;20108;-58
2022/05/14 05:19:21;;;;;;;52.95;7.18;;;;;;;;;;5051019;28;20878;-57
2022/05/14 05:21:47;;;;;;;19.60;5.07;;;;;;;;;;5057155;28;20039;-57
2022/05/14 05:24:14;;;;;;;48.17;25.50;;;;;;;;;;5056994;28;20112;-57
2022/05/14 05:26:40;;;;;;;36.55;20.80;;;;;;;;;;5054840;28;20497;-54
2022/05/14 05:29:06;;;;;;;28.98;11.55;;;;;;;;;;5061795;28;20029;-58
2022/05/14 05:31:34;;;;;;;26.73;10.65;;;;;;;;;;5069057;28;20435;-58
2022/05/14 05:34:00;;;;;;;19.30;7.57;;;;;;;;;;5060166;28;20036;-57
2022/05/14 05:36:26;;;;;;;15.65;6.82;;;;;;;;;;5068639;28;20124;-57
2022/05/14 05:38:52;;;;;;;17.77;5.40;;;;;;;;;;5057691;28;20099;-57
2022/05/14 05:41:19;;;;;;;13.02;4.75;;;;;;;;;;5059111;28;20055;-56
2022/05/14 05:43:45;;;;;;;15.02;5.28;;;;;;;;;;5059015;28;20082;-57
2022/05/14 05:46:11;;;;;;;21.05;5.55;;;;;;;;;;5060482;28;20032;-58
2022/05/14 05:48:38;;;;;;;16.23;5.50;;;;;;;;;;5058799;28;20021;-58
2022/05/14 05:51:04;;;;;;;13.52;5.63;;;;;;;;;;5059167;28;20120;-57
2022/05/14 05:59:00;;;;;;;13.27;6.57;;;;;;;;;;5059593;28;20031;-57
2022/05/14 06:01:26;;;;;;;13.45;5.65;;;;;;;;;;5060845;28;20107;-57
2022/05/14 06:03:52;;;;;;;14.93;5.85;;;;;;;;;;5060113;28;20032;-57
2022/05/14 06:06:18;;;;;;;15.88;5.28;;;;;;;;;;5057490;28;20012;-57
2022/05/14 06:08:45;;;;;;;17.45;5.90;;;;;;;;;;5059200;28;20112;-55
2022/05/14 06:11:11;;;;;;;12.65;5.80;;;;;;;;;;5057232;28;20058;-58
2022/05/14 06:13:37;;;;;;;19.00;7.30;;;;;;;;;;5058452;28;20771;-57
2022/05/14 06:16:03;;;;;;;13.45;5.85;;;;;;;;;;5058171;28;20021;-58
2022/05/14 06:18:29;;;;;;;15.18;5.75;;;;;;;;;;5059804;28;20107;-58
2022/05/14 06:20:55;;;;;;;20.33;6.55;;;;;;;;;;5066460;28;20025;-57
2022/05/14 06:23:22;;;;;;;12.57;6.43;;;;;;;;;;5067423;28;20032;-58
2022/05/14 06:25:48;;;;;;;16.80;6.78;;;;;;;;;;5059081;28;20512;-57
2022/05/14 06:28:14;;;;;;;17.75;6.75;;;;;;;;;;5066784;28;20020;-55
2022/05/14 06:30:43;;;;;;;18.00;7.38;;;;;;;;;;5049816;28;20036;-58
2022/05/14 06:33:10;;;;;;;20.60;7.38;;;;;;;;;;5050838;28;20164;-58
2022/05/14 06:35:37;;;;;;;21.58;8.25;;;;;;;;;;5060392;28;20539;-56
2022/05/14 06:38:04;;;;;;;20.27;7.95;;;;;;;;;;5054386;28;20426;-58
2022/05/14 06:40:30;;;;;;;18.27;7.53;;;;;;;;;;5056751;28;20048;-57
2022/05/14 06:42:56;;;;;;;20.30;8.10;;;;;;;;;;5056306;28;20127;-58
2022/05/14 06:45:22;;;;;;;23.15;8.40;;;;;;;;;;5057479;28;20718;-58
2022/05/14 06:47:48;;;;;;;20.40;8.43;;;;;;;;;;5059380;28;20050;-59
2022/05/14 06:50:14;;;;;;;23.75;8.25;;;;;;;;;;5054663;28;20033;-59
2022/05/14 06:52:43;;;;;;;22.63;8.20;;;;;;;;;;5056665;28;20477;-57
2022/05/14 06:55:10;;;;;;;25.27;9.05;;;;;;;;;;5056792;28;20054;-56
2022/05/14 06:57:37;;;;;;;23.48;8.88;;;;;;;;;;5058804;28;20032;-59
2022/05/14 07:00:04;;;;;;;24.00;9.30;;;;;;;;;;5056274;28;20541;-59
2022/05/14 07:02:30;;;;;;;28.75;8.20;;;;;;;;;;5055182;28;20518;-58
2022/05/14 07:07:41;;;;;;;24.67;9.35;;;;;;;;;;5051959;28;20463;-59
2022/05/14 07:10:07;;;;;;;20.13;9.20;;;;;;;;;;5058119;28;20041;-59
2022/05/14 07:12:33;;;;;;;22.60;7.72;;;;;;;;;;5056166;28;20070;-59
2022/05/14 07:15:02;;;;;;;27.95;10.02;;;;;;;;;;5049889;28;20041;-58
2022/05/14 07:17:28;;;;;;;32.50;9.02;;;;;;;;;;5058188;28;20488;-59
2022/05/14 07:19:54;;;;;;;24.92;10.10;;;;;;;;;;5049525;28;20025;-57
2022/05/14 07:22:21;;;;;;;27.83;9.57;;;;;;;;;;5056612;28;20487;-55
2022/05/14 07:24:47;;;;;;;29.55;9.63;;;;;;;;;;5058946;28;20044;-57
2022/05/14 07:27:14;;;;;;;33.65;10.38;;;;;;;;;;5056241;28;20027;-59
2022/05/14 07:29:41;;;;;;;24.73;8.77;;;;;;;;;;5060559;28;20055;-57
2022/05/14 07:32:08;;;;;;;22.33;9.95;;;;;;;;;;5059301;28;20032;-59
2022/05/14 07:34:35;;;;;;;22.98;8.93;;;;;;;;;;5064908;28;20041;-58
2022/05/14 07:37:04;;;;;;;20.98;8.25;;;;;;;;;;5061892;28;20077;-58
2022/05/14 07:39:33;;;;;;;26.03;8.87;;;;;;;;;;5064342;28;20111;-57
2022/05/14 07:42:00;;;;;;;21.80;7.90;;;;;;;;;;5064725;28;20781;-58
2022/05/14 07:44:30;;;;;;;23.85;8.85;;;;;;;;;;5061676;28;20125;-59
2022/05/14 07:46:56;;;;;;;24.45;8.07;;;;;;;;;;5061118;28;20485;-57
2022/05/14 07:49:23;;;;;;;19.60;8.25;;;;;;;;;;5060791;28;20519;-59
2022/05/14 07:51:49;;;;;;;16.92;8.15;;;;;;;;;;5066909;28;20016;-57
2022/05/14 07:54:15;;;;;;;37.88;8.70;;;;;;;;;;5066420;28;20024;-59
2022/05/14 07:56:43;;;;;;;108.70;13.80;;;;;;;;;;5056199;28;20116;-59
2022/05/14 07:59:09;;;;;;;63.58;11.40;;;;;;;;;;5067043;28;20069;-59
2022/05/14 08:01:35;;;;;;;41.00;8.35;;;;;;;;;;5063747;28;20107;-58
2022/05/14 08:04:01;;;;;;;29.30;8.43;;;;;;;;;;5058745;28;20398;-59
2022/05/14 08:06:27;;;;;;;33.92;7.28;;;;;;;;;;5062826;28;20032;-57
2022/05/14 08:08:54;;;;;;;44.20;8.95;;;;;;;;;;5068186;28;20055;-57
2022/05/14 08:11:20;;;;;;;31.75;6.63;;;;;;;;;;5066690;28;20033;-60
2022/05/14 08:13:47;;;;;;;29.42;7.47;;;;;;;;;;5065217;28;20036;-58
2022/05/14 08:16:13;;;;;;;41.13;7.78;;;;;;;;;;5067652;28;20060;-58
2022/05/14 08:18:39;;;;;;;28.35;8.13;;;;;;;;;;5063486;28;20025;-60
2022/05/14 08:26:34;;;;;;;24.58;7.20;;;;;;;;;;5048032;28;20040;-57
2022/05/14 08:29:00;;;;;;;22.98;6.85;;;;;;;;;;5053100;28;20029;-58
2022/05/14 08:31:26;;;;;;;20.63;6.97;;;;;;;;;;5047401;28;20112;-58
2022/05/14 08:33:52;;;;;;;20.60;6.47;;;;;;;;;;5061889;28;20044;-56
2022/05/14 08:36:18;;;;;;;26.65;6.50;;;;;;;;;;5054624;28;20112;-55
2022/05/14 08:38:44;;;;;;;31.08;6.75;;;;;;;;;;5053370;28;20086;-57
2022/05/14 08:41:11;;;;;;;27.75;6.72;;;;;;;;;;5059314;28;20522;-57
2022/05/14 08:43:59;;;;;;;21.80;5.78;;;;;;;;;;5062799;28;20056;-58
2022/05/14 08:46:25;;;;;;;31.75;6.65;;;;;;;;;;5048419;28;20040;-58
2022/05/14 08:48:53;;;;;;;25.65;5.60;;;;;;;;;;5048767;28;20028;-56
2022/05/14 08:51:21;;;;;;;21.38;5.68;;;;;;;;;;5067157;28;20021;-58
2022/05/14 08:53:48;;;;;;;23.90;6.18;;;;;;;;;;5067161;28;20119;-58
2022/05/14 08:56:17;;;;;;;21.27;5.68;;;;;;;;;;5057569;28;20060;-57
2022/05/14 08:59:02;;;;;;;25.00;6.88;;;;;;;;;;5053678;28;20132;-57
2022/05/14 09:01:30;;;;;;;23.70;6.07;;;;;;;;;;5055248;28;20016;-58
2022/05/14 09:03:56;;;;;;;30.38;5.80;;;;;;;;;;5054184;28;20039;-57
2022/05/14 09:06:23;;;;;;;23.23;6.03;;;;;;;;;;5057988;28;20025;-58
2022/05/14 09:08:49;;;;;;;24.40;7.32;;;;;;;;;;5052309;28;20067;-58
2022/05/14 09:11:21;;;;;;;29.33;6.15;;;;;;;;;;5070610;28;20107;-57
2022/05/14 09:13:49;;;;;;;26.73;6.57;;;;;;;;;;5069420;28;20155;-57
2022/05/14 09:16:23;;;;;;;22.50;6.00;;;;;;;;;;5059796;28;20028;-58
2022/05/14 09:18:50;;;;;;;22.90;5.90;;;;;;;;;;5069501;28;20037;-58
2022/05/14 09:21:21;;;;;;;19.70;5.85;;;;;;;;;;5059263;28;20025;-58
2022/05/14 09:23:50;;;;;;;20.08;6.25;;;;;;;;;;5069306;28;20115;-57
2022/05/14 09:26:20;;;;;;;26.92;6.30;;;;;;;;;;5059386;28;20032;-56
2022/05/14 09:28:47;;;;;;;22.60;6.55;;;;;;;;;;5070887;28;20870;-57
2022/05/14 09:31:23;;;;;;;21.38;5.63;;;;;;;;;;5062066;28;20024;-58
2022/05/14 09:33:50;;;;;;;23.90;6.35;;;;;;;;;;5050759;28;20123;-58
2022/05/14 09:36:20;;;;;;;22.90;5.75;;;;;;;;;;5063010;28;20114;-56
2022/05/14 09:38:48;;;;;;;22.88;6.40;;;;;;;;;;5050559;28;20094;-58
2022/05/14 09:41:18;;;;;;;18.27;6.07;;;;;;;;;;5063074;28;20512;-59
2022/05/14 09:43:44;;;;;;;;;;;;;;;;;;5051205;28;20033;-58
2022/05/14 09:46:12;;;;;;;21.00;5.22;;;;;;;;;;5061818;28;20285;-57
2022/05/14 09:48:48;;;;;;;21.00;6.43;;;;;;;;;;5051421;28;20060;-60
2022/05/14 09:51:27;;;;;;;19.15;5.03;;;;;;;;;;5055808;28;20029;-58
2022/05/14 09:53:53;;;;;;;15.30;4.15;;;;;;;;;;5049744;28;20037;-54
2022/05/14 09:56:19;;;;;;;15.85;4.38;;;;;;;;;;5050988;28;20499;-55
2022/05/14 09:58:57;;;;;;;19.98;4.65;;;;;;;;;;5069669;28;20119;-58
2022/05/14 10:01:31;;;;;;;14.60;4.80;;;;;;;;;;5058896;28;20035;-56
2022/05/14 10:04:19;;;;;;;18.08;5.75;;;;;;;;;;5067664;28;20036;-57
2022/05/14 10:06:48;;;;;;;11.93;4.03;;;;;;;;;;5058499;28;20056;-58
2022/05/14 10:09:17;;;;;;;18.88;5.30;;;;;;;;;;5067721;28;20499;-58
2022/05/14 10:11:45;;;;;;;19.30;5.03;;;;;;;;;;5067278;28;20033;-57
2022/05/14 10:14:14;;;;;;;17.05;4.60;;;;;;;;;;5062004;28;20036;-58
2022/05/14 10:17:00;;;;;;;22.95;5.82;;;;;;;;;;5066720;28;20659;-56
2022/05/14 10:19:42;;;;;;;14.07;4.45;;;;;;;;;;5050324;28;20037;-56
2022/05/14 10:22:14;;;;;;;15.13;4.10;;;;;;;;;;5049413;28;20146;-57
2022/05/14 10:27:44;;;;;;;15.82;4.57;;;;;;;;;;5058075;28;20068;-57
2022/05/14 10:30:16;;;;;;;16.50;4.10;;;;;;;;;;5048622;28;20484;-58
2022/05/14 10:32:44;;;;;;;12.07;3.38;;;;;;;;;;5059475;28;20116;-58
2022/05/14 10:35:10;;;;;;;16.52;3.97;;;;;;;;;;5048650;28;20048;-57
2022/05/14 10:37:37;;;;;;;14.10;4.05;;;;;;;;;;5055364;28;20748;-57
2022/05/14 10:40:03;;;;;;;12.00;4.15;;;;;;;;;;5052699;28;20037;-57
2022/05/14 10:42:46;;;;;;;15.10;3.85;;;;;;;;;;5060683;28;20071;-58
2022/05/14 10:45:23;;;;;;;12.93;3.90;;;;;;;;;;5062596;28;20063;-58
2022/05/14 10:48:07;;;;;;;11.35;3.80;;;;;;;;;;5063344;28;20112;-58
2022/05/14 10:50:33;;;;;;;11.30;3.90;;;;;;;;;;5053244;28;20123;-57
2022/05/14 10:53:00;;;;;;;13.63;4.00;;;;;;;;;;5049293;28;20615;-58
2022/05/14 10:55:35;;;;;;;17.02;4.70;;;;;;;;;;5055424;28;20031;-57
2022/05/14 10:58:03;;;;;;;17.38;4.75;;;;;;;;;;5055537;28;20025;-57
2022/05/14 11:00:29;;;;;;;13.45;3.45;;;;;;;;;;5053927;28;20044;-58
2022/05/14 11:03:06;;;;;;;14.10;4.20;;;;;;;;;;5052555;28;20021;-56
2022/05/14 11:05:36;;;;;;;13.43;3.60;;;;;;;;;;5055727;28;20036;-57
2022/05/14 11:08:11;;;;;;;11.00;3.47;;;;;;;;;;5051754;28;20095;-56
2022/05/14 11:10:37;;;;;;;13.90;3.92;;;;;;;;;;5055676;28;20518;-60
2022/05/14 11:13:14;;;;;;;12.82;3.90;;;;;;;;;;5050414;28;20219;-60
2022/05/14 11:15:40;;;;;;;10.02;3.40;;;;;;;;;;5056797;28;20040;-58
2022/05/14 11:18:08;;;;;;;16.38;3.67;;;;;;;;;;5049348;28;20031;-59
2022/05/14 11:20:35;;;;;;;14.98;4.68;;;;;;;;;;5066423;28;20036;-58
2022/05/14 11:23:18;;;;;;;11.27;3.83;;;;;;;;;;5057307;28;20025;-59
2022/05/14 11:25:44;;;;;;;13.60;2.97;;;;;;;;;;5057060;28;20131;-59
2022/05/14 11:28:17;;;;;;;14.75;3.60;;;;;;;;;;5057108;28;20099;-58
2022/05/14 11:30:44;;;;;;;12.77;3.33;;;;;;;;;;5054709;28;20025;-56
2022/05/14 11:33:22;;;;;;;11.40;3.70;;;;;;;;;;5056542;28;20028;-56
2022/05/14 11:35:50;;;;;;;10.95;3.60;;;;;;;;;;5056112;28;20078;-57
2022/05/14 11:38:25;;;;;;;22.35;5.28;;;;;;;;;;5056518;28;20112;-57
2022/05/14 11:41:10;;;;;;;25.58;5.07;;;;;;;;;;5050112;28;20049;-55
2022/05/14 11:43:46;;;;;;;16.90;4.63;;;;;;;;;;5053882;28;20024;-57
2022/05/14 11:46:20;;;;;;;24.13;5.82;;;;;;;;;;5054793;28;20036;-56
2022/05/14 11:49:02;;;;;;;21.42;5.30;;;;;;;;;;5055319;28;20115;-57
2022/05/14 11:51:28;;;;;;;26.38;5.80;;;;;;;;;;5054924;28;20025;-57
2022/05/14 11:54:17;;;;;;;17.65;5.15;;;;;;;;;;5051070;28;20032;-58
2022/05/14 11:57:01;;;;;;;17.92;5.18;;;;;;;;;;5044969;28;20029;-58
2022/05/14 11:59:32;;;;;;;26.55;5.45;;;;;;;;;;5048757;28;20446;-58
2022/05/14 12:02:00;;;;;;;18.40;4.78;;;;;;;;;;5067185;28;20044;-57
2022/05/14 12:04:32;;;;;;;22.38;5.25;;;;;;;;;;5066090;28;20029;-57
2022/05/14 12:06:58;;;;;;;17.77;5.05;;;;;;;;;;5056489;28;20120;-57
2022/05/14 12:09:53;;;;;;;18.85;4.57;;;;;;;;;;5065796;28;20031;-58
2022/05/14 12:12:33;;;;;;;23.80;4.97;;;;;;;;;;5001245;28;20030;-58
2022/05/14 12:14:59;;;;;;;;;;;;;;;;;;5064020;28;20039;-55
2022/05/14 12:17:27;;;;;;;18.85;5.65;;;;;;;;;;5058513;28;20564;-56
2022/05/14 12:19:55;;;;;;;18.90;4.60;;;;;;;;;;5054998;28;20029;-56
2022/05/14 12:22:23;;;;;;;20.08;4.28;;;;;;;;;;5055553;28;20028;-56
2022/05/14 12:24:57;;;;;;;15.45;4.47;;;;;;;;;;5068139;28;20029;-57
2022/05/14 12:27:23;;;;;;;17.08;5.00;;;;;;;;;;5063014;28;20021;-58
2022/05/14 12:29:53;;;;;;;20.90;4.72;;;;;;;;;;5051805;28;20032;-57
2022/05/14 12:35:14;;;;;;;12.52;3.67;;;;;;;;;;5051674;28;20080;-58
2022/05/14 12:37:41;;;;;;;15.52;4.10;;;;;;;;;;5057530;28;20074;-58
2022/05/14 12:40:09;;;;;;;20.90;3.88;;;;;;;;;;5065403;28;20029;-56
2022/05/14 12:42:44;;;;;;;19.65;3.65;;;;;;;;;;5063628;28;20030;-56
2022/05/14 12:45:11;;;;;;;18.30;4.40;;;;;;;;;;5055764;28;20119;-58
2022/05/14 12:47:38;;;;;;;15.05;3.70;;;;;;;;;;5060733;28;20029;-59
2022/05/14 12:50:15;;;;;;;19.13;4.88;;;;;;;;;;5062782;28;20021;-58
2022/05/14 12:52:52;;;;;;;18.92;4.55;;;;;;;;;;5058816;28;20013;-58
2022/05/14 12:55:19;;;;;;;15.05;4.45;;;;;;;;;;5059806;28;20032;-54
2022/05/14 12:57:47;;;;;;;15.82;4.18;;;;;;;;;;5063601;28;20024;-53
2022/05/14 13:00:15;;;;;;;18.13;4.30;;;;;;;;;;5051929;28;20028;-58
2022/05/14 13:02:46;;;;;;;15.48;4.70;;;;;;;;;;5066911;28;20138;-57
2022/05/14 13:05:18;;;;;;;16.48;3.58;;;;;;;;;;5051642;28;20045;-57
2022/05/14 13:08:06;;;;;;;18.23;4.45;;;;;;;;;;5055942;28;20117;-58
2022/05/14 13:10:33;;;;;;;14.98;4.32;;;;;;;;;;5056877;28;20059;-57
2022/05/14 13:13:00;;;;;;;14.30;3.88;;;;;;;;;;5060171;28;20021;-57
2022/05/14 13:15:41;;;;;;;11.90;3.60;;;;;;;;;;5058522;28;20052;-58
2022/05/14 13:18:27;;;;;;;15.30;3.63;;;;;;;;;;5061132;28;20025;-58
2022/05/14 13:21:01;;;;;;;13.63;5.03;;;;;;;;;;5059570;28;20100;-58
2022/05/14 13:23:28;;;;;;;12.15;3.78;;;;;;;;;;5059451;28;20036;-58
2022/05/14 13:26:17;;;;;;;14.88;3.78;;;;;;;;;;5058165;28;20028;-59
2022/05/14 13:28:44;;;;;;;13.68;4.45;;;;;;;;;;5056765;28;20104;-56
2022/05/14 13:31:21;;;;;;;14.13;4.05;;;;;;;;;;5058470;28;20025;-58
2022/05/14 13:33:57;;;;;;;11.77;3.53;;;;;;;;;;5060745;28;20094;-57
2022/05/14 13:39:13;;;;;;;14.18;3.65;;;;;;;;;;5058389;28;20128;-58
2022/05/14 13:44:19;;;;;;;16.60;3.78;;;;;;;;;;5022851;22;20600;-58
2022/05/14 13:46:56;;;;;;;20.00;4.40;;;;;;;;;;4999415;22;20915;-58
2022/05/14 13:49:24;;;;;;;12.00;3.80;;;;;;;;;;5016416;22;20201;-57
2022/05/14 13:51:55;;;;;;;16.33;4.60;;;;;;;;;;5055049;22;20049;-58
2022/05/14 13:54:32;;;;;;;24.73;4.10;;;;;;;;;;5043496;28;20051;-59
2022/05/14 13:57:03;;;;;;;23.85;4.93;;;;;;;;;;5048877;28;20163;-57
2022/05/14 14:02:21;;;;;;;17.75;4.85;;;;;;;;;;5061032;22;20587;-58
2022/05/14 14:04:49;;;;;;;16.58;5.03;;;;;;;;;;5068572;22;20059;-58
2022/05/14 14:07:14;;;;;;;20.13;4.10;;;;;;;;;;5066510;28;20047;-56
2022/05/14 14:09:41;;;;;;;14.93;5.47;;;;;;;;;;5063835;28;20024;-57
2022/05/14 14:12:08;;;;;;;20.52;5.20;;;;;;;;;;5063795;28;20025;-57
2022/05/14 14:14:35;;;;;;;17.10;5.07;;;;;;;;;;4972991;22;20062;-58
2022/05/14 14:17:01;;;;;;;12.23;4.47;;;;;;;;;;5065847;22;20383;-56
2022/05/14 14:19:27;;;;;;;14.88;4.82;;;;;;;;;;5060189;22;20846;-58
2022/05/14 14:21:54;;;;;;;15.70;5.32;;;;;;;;;;5035173;22;1019906;-56
2022/05/14 14:24:21;;;;;;;17.95;4.30;;;;;;;;;;5070470;22;20055;-56
2022/05/14 14:26:48;;;;;;;15.63;4.15;;;;;;;;;;5060380;22;20065;-58
2022/05/14 14:29:15;;;;;;;12.23;4.30;;;;;;;;;;5067729;22;20079;-57
2022/05/14 14:31:41;;;;;;;17.58;4.40;;;;;;;;;;5085771;28;20028;-56
2022/05/14 14:34:07;;;;;;;13.10;3.92;;;;;;;;;;5074095;22;20093;-58
2022/05/14 14:36:33;;;;;;;16.63;4.25;;;;;;;;;;5067691;28;20040;-55
2022/05/14 14:38:59;;;;;;;12.15;4.57;;;;;;;;;;5069104;28;20103;-56
2022/05/14 14:41:25;;;;;;;16.02;4.88;;;;;;;;;;5064766;28;20178;-57
2022/05/14 14:43:51;;;;;;;14.20;4.07;;;;;;;;;;5068470;28;20128;-56
2022/05/14 14:46:18;;;;;;;16.77;4.20;;;;;;;;;;5064121;28;20103;-58
2022/05/14 14:48:48;;;;;;;14.57;4.22;;;;;;;;;;5048586;28;20463;-58
2022/05/14 14:51:14;;;;;;;;;;;;;;;;;;5057816;28;20056;-57
2022/05/14 14:53:40;;;;;;;15.85;4.32;;;;;;;;;;5065451;28;19948;-58
2022/05/14 14:56:08;;;;;;;13.60;3.90;;;;;;;;;;5060805;28;20029;-58
2022/05/14 14:58:34;;;;;;;17.08;4.93;;;;;;;;;;5064354;28;20044;-58
2022/05/14 15:01:01;;;;;;;17.67;4.60;;;;;;;;;;5067798;28;20016;-58
2022/05/14 15:03:30;;;;;;;18.42;4.97;;;;;;;;;;5063055;28;20111;-58
2022/05/14 15:05:58;;;;;;;16.58;4.13;;;;;;;;;;5065012;28;20035;-58
2022/05/14 15:08:26;;;;;;;20.35;4.63;;;;;;;;;;5051659;28;20429;-58
2022/05/14 15:10:52;;;;;;;18.33;4.43;;;;;;;;;;5063739;28;20823;-58
2022/05/14 15:13:20;;;;;;;20.58;4.45;;;;;;;;;;5067379;28;20202;-58
2022/05/14 15:15:46;;;;;;;15.57;3.83;;;;;;;;;;5066463;28;20028;-58
2022/05/14 15:18:13;;;;;;;15.77;3.45;;;;;;;;;;5056683;28;20494;-58